Aviation Digital Data Service (ADDS)

Output produced by METARs form (1145 UTC 22 September 2017)
found at http://aviationweather.gov/adds/metars/
 
KRDU 221120Z 2212/2312 VRB05KT P6SM SCT070